Map

Track Data

SID SEASON NUMBER BASIN SUBBASIN NAME ISO_TIME NATURE LAT LON WMO_WIND WMO_PRES WMO_AGENCY TRACK_TYPE DIST2LAND LANDFALL IFLAG USA_AGENCY USA_ATCF_ID USA_LAT USA_LON USA_RECORD USA_STATUS USA_WIND USA_PRES USA_SSHS USA_R34_NE USA_R34_SE USA_R34_SW USA_R34_NW USA_R50_NE USA_R50_SE USA_R50_SW USA_R50_NW USA_R64_NE USA_R64_SE USA_R64_SW USA_R64_NW USA_POCI USA_ROCI USA_RMW USA_EYE TOKYO_LAT TOKYO_LON TOKYO_GRADE TOKYO_WIND TOKYO_PRES TOKYO_R50_DIR TOKYO_R50_LONG TOKYO_R50_SHORT TOKYO_R30_DIR TOKYO_R30_LONG TOKYO_R30_SHORT TOKYO_LAND CMA_LAT CMA_LON CMA_CAT CMA_WIND CMA_PRES HKO_LAT HKO_LON HKO_CAT HKO_WIND HKO_PRES NEWDELHI_LAT NEWDELHI_LON NEWDELHI_GRADE NEWDELHI_WIND NEWDELHI_PRES NEWDELHI_CI NEWDELHI_DP NEWDELHI_POCI REUNION_LAT REUNION_LON REUNION_TYPE REUNION_WIND REUNION_PRES REUNION_TNUM REUNION_CI REUNION_RMW REUNION_R34_NE REUNION_R34_SE REUNION_R34_SW REUNION_R34_NW REUNION_R50_NE REUNION_R50_SE REUNION_R50_SW REUNION_R50_NW REUNION_R64_NE REUNION_R64_SE REUNION_R64_SW REUNION_R64_NW BOM_LAT BOM_LON BOM_TYPE BOM_WIND BOM_PRES BOM_TNUM BOM_CI BOM_RMW BOM_R34_NE BOM_R34_SE BOM_R34_SW BOM_R34_NW BOM_R50_NE BOM_R50_SE BOM_R50_SW BOM_R50_NW BOM_R64_NE BOM_R64_SE BOM_R64_SW BOM_R64_NW BOM_ROCI BOM_POCI BOM_EYE BOM_POS_METHOD BOM_PRES_METHOD NADI_LAT NADI_LON NADI_CAT NADI_WIND NADI_PRES WELLINGTON_LAT WELLINGTON_LON WELLINGTON_WIND WELLINGTON_PRES DS824_LAT DS824_LON DS824_STAGE DS824_WIND DS824_PRES TD9636_LAT TD9636_LON TD9636_STAGE TD9636_WIND TD9636_PRES TD9635_LAT TD9635_LON TD9635_WIND TD9635_PRES TD9635_ROCI NEUMANN_LAT NEUMANN_LON NEUMANN_CLASS NEUMANN_WIND NEUMANN_PRES MLC_LAT MLC_LON MLC_CLASS MLC_WIND MLC_PRES USA_GUST BOM_GUST BOM_GUST_PER REUNION_GUST REUNION_GUST_PER USA_SEAHGT USA_SEARAD_NE USA_SEARAD_SE USA_SEARAD_SW USA_SEARAD_NW STORM_SPEED STORM_DIR
1940035S10178 1940 9 SP MM NOT_NAMED 1940-02-04 00:00:00 NR -9.50000 178.300 main 767 739 __________O___ -1 -9.50000 178.300 2 9 224
1940035S10178 1940 9 SP MM NOT_NAMED 1940-02-04 03:00:00 NR -9.82373 177.983 main 742 716 __________P___ -1 -9.82373 177.983 2 9 224
1940035S10178 1940 9 SP MM NOT_NAMED 1940-02-04 06:00:00 NR -10.1379 177.673 main 719 695 __________P___ -1 -10.1379 177.673 2 9 224
1940035S10178 1940 9 SP MM NOT_NAMED 1940-02-04 09:00:00 NR -10.4330 177.376 main 698 678 __________P___ -1 -10.4330 177.376 2 8 225
1940035S10178 1940 9 SP MM NOT_NAMED 1940-02-04 12:00:00 NR -10.7000 177.100 main 678 666 __________O___ -1 -10.7000 177.100 2 7 226
1940035S10178 1940 9 SP MM NOT_NAMED 1940-02-04 15:00:00 NR -10.9342 176.847 main 670 653 __________P___ -1 -10.9342 176.847 2 7 227
1940035S10178 1940 9 SP MM NOT_NAMED 1940-02-04 18:00:00 NR -11.1497 176.607 main 657 635 __________P___ -1 -11.1497 176.607 2 6 228
1940035S10178 1940 9 SP MM NOT_NAMED 1940-02-04 21:00:00 NR -11.3654 176.363 main 635 626 __________P___ -1 -11.3654 176.363 2 7 228
1940035S10178 1940 9 SP MM NOT_NAMED 1940-02-05 00:00:00 NR -11.6000 176.100 main 626 611 __________O___ -1 -11.6000 176.100 2 8 226
1940035S10178 1940 9 SP MM NOT_NAMED 1940-02-05 03:00:00 NR -11.8946 175.809 main 611 598 __________P___ -1 -11.8946 175.809 2 9 224
1940035S10178 1940 9 SP MM NOT_NAMED 1940-02-05 06:00:00 NR -12.2073 175.495 main 598 589 __________P___ -1 -12.2073 175.495 2 9 226
1940035S10178 1940 9 SP MM NOT_NAMED 1940-02-05 09:00:00 NR -12.5164 175.159 main 589 583 __________P___ -1 -12.5164 175.159 2 9 229
1940035S10178 1940 9 SP MM NOT_NAMED 1940-02-05 12:00:00 NR -12.8000 174.800 main 590 589 __________O___ -1 -12.8000 174.800 2 9 235
1940035S10178 1940 9 SP MM NOT_NAMED 1940-02-05 15:00:00 NR -13.0206 174.421 main 603 594 __________P___ -1 -13.0206 174.421 2 9 241
1940035S10178 1940 9 SP MM NOT_NAMED 1940-02-05 18:00:00 NR -13.2149 174.022 main 610 608 __________P___ -1 -13.2149 174.022 2 9 244
1940035S10178 1940 9 SP MM NOT_NAMED 1940-02-05 21:00:00 NR -13.4018 173.612 main 620 619 __________P___ -1 -13.4018 173.612 2 9 244
1940035S10178 1940 9 SP MM NOT_NAMED 1940-02-06 00:00:00 NR -13.6000 173.200 main 634 605 __________O___ -1 -13.6000 173.200 2 9 241
1940035S10178 1940 9 SP MM NOT_NAMED 1940-02-06 03:00:00 NR -13.8396 172.788 main 605 551 __________P___ -1 -13.8396 172.788 2 9 238
1940035S10178 1940 9 SP MM NOT_NAMED 1940-02-06 06:00:00 NR -14.0924 172.378 main 551 503 __________P___ -1 -14.0924 172.378 2 9 237
1940035S10178 1940 9 SP MM NOT_NAMED 1940-02-06 09:00:00 NR -14.3490 171.978 main 503 449 __________P___ -1 -14.3490 171.978 2 9 236
1940035S10178 1940 9 SP MM NOT_NAMED 1940-02-06 12:00:00 NR -14.6000 171.600 main 449 410 __________O___ -1 -14.6000 171.600 2 8 235
1940035S10178 1940 9 SP MM NOT_NAMED 1940-02-06 15:00:00 NR -14.8399 171.265 main 410 368 __________P___ -1 -14.8399 171.265 2 8 233
1940035S10178 1940 9 SP MM NOT_NAMED 1940-02-06 18:00:00 NR -15.0719 170.950 main 358 329 __________P___ -1 -15.0719 170.950 2 8 233
1940035S10178 1940 9 SP MM NOT_NAMED 1940-02-06 21:00:00 NR -15.2930 170.634 main 319 282 __________P___ -1 -15.2930 170.634 2 8 236
1940035S10178 1940 9 SP MM NOT_NAMED 1940-02-07 00:00:00 NR -15.5000 170.300 main 282 234 __________O___ -1 -15.5000 170.300 2 8 240
1940035S10178 1940 9 SP MM NOT_NAMED 1940-02-07 03:00:00 NR -15.6934 169.917 main 234 187 __________P___ -1 -15.6934 169.917 2 8 244
1940035S10178 1940 9 SP MM NOT_NAMED 1940-02-07 06:00:00 NR -15.8725 169.515 main 187 142 __________P___ -1 -15.8725 169.515 2 9 246
1940035S10178 1940 9 SP MM NOT_NAMED 1940-02-07 09:00:00 NR -16.0403 169.105 main 142 96 __________P___ -1 -16.0403 169.105 2 9 247
1940035S10178 1940 9 SP MM NOT_NAMED 1940-02-07 12:00:00 NR -16.2000 168.700 main 96 53 __________O___ -1 -16.2000 168.700 2 8 247
1940035S10178 1940 9 SP MM NOT_NAMED 1940-02-07 15:00:00 NR -16.3611 168.305 main 53 10 __________P___ -1 -16.3611 168.305 2 8 247
1940035S10178 1940 9 SP MM NOT_NAMED 1940-02-07 18:00:00 NR -16.5149 167.920 main 10 0 __________P___ -1 -16.5149 167.920 2 8 248
1940035S10178 1940 9 SP MM NOT_NAMED 1940-02-07 21:00:00 NR -16.6612 167.549 main 11 11 __________P___ -1 -16.6612 167.549 2 7 248
1940035S10178 1940 9 SP MM NOT_NAMED 1940-02-08 00:00:00 NR -16.8000 167.200 main 39 39 __________O___ -1 -16.8000 167.200 2 7 246
1940035S10178 1940 9 SP MM NOT_NAMED 1940-02-08 03:00:00 NR -16.9481 166.882 main 69 69 __________P___ -1 -16.9481 166.882 2 7 244
1940035S10178 1940 9 SP MM NOT_NAMED 1940-02-08 06:00:00 NR -17.0870 166.585 main 108 108 __________P___ -1 -17.0870 166.585 2 6 245
1940035S10178 1940 9 SP MM NOT_NAMED 1940-02-08 09:00:00 NR -17.2075 166.295 main 140 140 __________P___ -1 -17.2075 166.295 2 6 249
1940035S10178 1940 9 SP MM NOT_NAMED 1940-02-08 12:00:00 NR -17.3000 166.000 main 173 173 __________O___ -1 -17.3000 166.000 2 6 256
1940035S10178 1940 9 SP MM NOT_NAMED 1940-02-08 15:00:00 NR -17.3494 165.698 main 200 200 __________P___ -1 -17.3494 165.698 2 6 263
1940035S10178 1940 9 SP MM NOT_NAMED 1940-02-08 18:00:00 NR -17.3720 165.387 main 232 232 __________P___ -1 -17.3720 165.387 2 6 267
1940035S10178 1940 9 SP MM NOT_NAMED 1940-02-08 21:00:00 NR -17.3837 165.057 main 257 257 __________P___ -1 -17.3837 165.057 2 7 268
1940035S10178 1940 9 SP MM NOT_NAMED 1940-02-09 00:00:00 NR -17.4000 164.700 main 293 293 __________O___ -1 -17.4000 164.700 2 7 265
1940035S10178 1940 9 SP MM NOT_NAMED 1940-02-09 03:00:00 NR -17.4470 164.296 main 313 302 __________P___ -1 -17.4470 164.296 2 8 263
1940035S10178 1940 9 SP MM NOT_NAMED 1940-02-09 06:00:00 NR -17.5002 163.865 main 302 297 __________P___ -1 -17.5002 163.865 2 8 263
1940035S10178 1940 9 SP MM NOT_NAMED 1940-02-09 09:00:00 NR -17.5532 163.427 main 300 300 __________P___ -1 -17.5532 163.427 2 8 263
1940035S10178 1940 9 SP MM NOT_NAMED 1940-02-09 12:00:00 NR -17.6000 163.000 main 313 313 __________O___ -1 -17.6000 163.000 2 8 264
1940035S10178 1940 9 SP MM NOT_NAMED 1940-02-09 15:00:00 NR -17.6402 162.586 main 330 326 __________P___ -1 -17.6402 162.586 2 8 265
1940035S10178 1940 9 SP MM NOT_NAMED 1940-02-09 18:00:00 NR -17.6725 162.190 main 343 343 __________P___ -1 -17.6725 162.190 2 7 266
1940035S10178 1940 9 SP MM NOT_NAMED 1940-02-09 21:00:00 NR -17.6934 161.824 main 369 369 __________P___ -1 -17.6934 161.824 2 7 268
1940035S10178 1940 9 SP MM NOT_NAMED 1940-02-10 00:00:00 NR -17.7000 161.500 main 391 391 __________O___ -1 -17.7000 161.500 2 6 270
1940035S10178 1940 9 SP MM NOT_NAMED 1940-02-10 03:00:00 NR -17.6931 161.228 main 413 413 __________P___ -1 -17.6931 161.228 2 5 273
1940035S10178 1940 9 SP MM NOT_NAMED 1940-02-10 06:00:00 NR -17.6721 160.997 main 429 429 __________P___ -1 -17.6721 160.997 2 4 277
1940035S10178 1940 9 SP MM NOT_NAMED 1940-02-10 09:00:00 NR -17.6400 160.793 main 452 452 __________P___ -1 -17.6400 160.793 2 4 281
1940035S10178 1940 9 SP MM NOT_NAMED 1940-02-10 12:00:00 NR -17.6000 160.600 main 468 468 __________O___ -1 -17.6000 160.600 2 4 283
1940035S10178 1940 9 SP MM NOT_NAMED 1940-02-10 15:00:00 NR -17.5609 160.425 main 484 484 __________P___ -1 -17.5609 160.425 2 3 284
1940035S10178 1940 9 SP MM NOT_NAMED 1940-02-10 18:00:00 NR -17.5144 160.253 main 499 499 __________P___ -1 -17.5144 160.253 2 4 286
1940035S10178 1940 9 SP MM NOT_NAMED 1940-02-10 21:00:00 NR -17.4607 160.054 main 516 516 __________P___ -1 -17.4607 160.054 2 4 285
1940035S10178 1940 9 SP EA NOT_NAMED 1940-02-11 00:00:00 NR -17.4000 159.800 main 548 548 __________O___ -1 -17.4000 159.800 2 6 282
1940035S10178 1940 9 SP EA NOT_NAMED 1940-02-11 03:00:00 NR -17.3368 159.433 main 589 589 __________P___ -1 -17.3368 159.433 2 8 280
1940035S10178 1940 9 SP EA NOT_NAMED 1940-02-11 06:00:00 NR -17.2657 159.015 main 624 624 __________P___ -1 -17.2657 159.015 2 8 281
1940035S10178 1940 9 SP EA NOT_NAMED 1940-02-11 09:00:00 NR -17.1868 158.589 main 665 665 __________P___ -1 -17.1868 158.589 2 8 282
1940035S10178 1940 9 SP EA NOT_NAMED 1940-02-11 12:00:00 NR -17.1000 158.200 main 707 707 __________O___ -1 -17.1000 158.200 2 7 284
1940035S10178 1940 9 SP EA NOT_NAMED 1940-02-11 15:00:00 NR -17.0190 157.899 main 741 741 __________P___ -1 -17.0190 157.899 2 6 288
1940035S10178 1940 9 SP EA NOT_NAMED 1940-02-11 18:00:00 NR -16.9296 157.640 main 774 768 __________P___ -1 -16.9296 157.640 2 5 293
1940035S10178 1940 9 SP EA NOT_NAMED 1940-02-11 21:00:00 NR -16.8254 157.411 main 798 761 __________P___ -1 -16.8254 157.411 2 17 319
1940035S10178 1940 9 SP EA NOT_NAMED 1940-02-11 23:00:00 NR -15.8797 156.680 1000 bom main 761 733 ______O___P___ -1 -14.0000 156.000 1000 -16.7445 157.269 2 38 325
1940035S10178 1940 9 SP EA NOT_NAMED 1940-02-12 00:00:00 TS -15.2704 156.293 main 723 704 ______P__OO___ -1 -14.0130 155.919 -14.0000 155.900 TC 30 1000 -16.7000 157.200 2 17 324
1940035S10178 1940 9 SP EA NOT_NAMED 1940-02-12 03:00:00 TS -14.9478 155.986 main 704 702 ______P__PP___ -1 -14.0522 155.676 -14.0391 155.652 TC -16.5465 156.982 2 7 314
1940035S10178 1940 9 SP EA NOT_NAMED 1940-02-12 06:00:00 TS -14.7633 155.750 main 715 702 ______P__PP___ -1 -14.0927 155.436 -14.0791 155.406 TC -16.3724 156.778 2 5 301
1940035S10178 1940 9 SP EA NOT_NAMED 1940-02-12 09:00:00 TS -14.7034 155.569 main 702 694 ______P__PP___ -1 -14.1356 155.200 -14.1211 155.165 TC -16.1871 156.585 2 4 284
1940035S10178 1940 9 SP EA NOT_NAMED 1940-02-12 11:00:00 TS -14.6947 155.453 main 694 686 ______P__PP___ -1 -14.1660 155.045 -14.1507 155.008 TC -16.0620 156.461 2 3 274
1940035S10178 1940 9 SP EA NOT_NAMED 1940-02-12 12:00:00 TS -14.6916 155.392 main 686 670 ______P__PO___ -1 -14.1819 154.969 -14.1661 154.930 TC -16.0000 156.400 2 4 272
1940035S10178 1940 9 SP EA NOT_NAMED 1940-02-12 15:00:00 TS -14.6874 155.194 main 670 654 ______P__PP___ -1 -14.2329 154.746 -14.2154 154.704 TC -15.8168 156.218 2 4 270
1940035S10178 1940 9 SP EA NOT_NAMED 1940-02-12 18:00:00 TS -14.6891 154.988 main 654 639 ______P__PP___ -1 -14.2896 154.532 -14.2700 154.489 TC -15.6349 156.043 2 4 269
1940035S10178 1940 9 SP EA NOT_NAMED 1940-02-12 21:00:00 TS -14.6975 154.784 main 639 631 ______P__PP___ -1 -14.3532 154.329 -14.3312 154.287 TC -15.4606 155.871 2 4 267
1940035S10178 1940 9 SP EA NOT_NAMED 1940-02-12 23:00:00 TS -14.7069 154.654 995 bom main 631 624 ______O__PP___ -1 -14.4000 154.200 995 -14.3761 154.160 TC -15.3516 155.757 2 4 265
1940035S10178 1940 9 SP EA NOT_NAMED 1940-02-13 00:00:00 TS -14.7124 154.596 main 624 609 ______P__OO___ -1 -14.4248 154.138 -14.4000 154.100 TC 40 995 -15.3000 155.700 2 3 264
1940035S10178 1940 9 SP EA NOT_NAMED 1940-02-13 03:00:00 TS -14.7314 154.431 main 609 602 ______P__PP___ -1 -14.5045 153.961 -14.4771 153.930 TC -15.1443 155.537 2 3 262
1940035S10178 1940 9 SP EA NOT_NAMED 1940-02-13 06:00:00 TS -14.7578 154.274 main 611 597 ______P__PP___ -1 -14.5904 153.795 -14.5611 153.775 TC -15.0048 155.373 2 3 259
1940035S10178 1940 9 SP EA NOT_NAMED 1940-02-13 09:00:00 TS -14.7921 154.118 main 597 591 ______P__PP___ -1 -14.6805 153.639 -14.6500 153.631 TC -14.8880 155.197 2 3 256
1940035S10178 1940 9 SP EA NOT_NAMED 1940-02-13 11:00:00 TS -14.8197 154.012 main 591 591 ______P__PP___ -1 -14.7420 153.540 -14.7111 153.541 TC -14.8257 155.068 2 3 255
1940035S10178 1940 9 SP EA NOT_NAMED 1940-02-13 12:00:00 TS -14.8350 153.956 main 591 584 ______P__PO___ -1 -14.7730 153.492 -14.7419 153.497 TC -14.8000 155.000 2 3 253
1940035S10178 1940 9 SP EA NOT_NAMED 1940-02-13 15:00:00 TS -14.8867 153.782 main 587 575 ______P__PP___ -1 -14.8658 153.352 -14.8348 153.370 TC -14.7462 154.780 2 4 252
1940035S10178 1940 9 SP EA NOT_NAMED 1940-02-13 18:00:00 TS -14.9447 153.604 main 575 573 ______P__PP___ -1 -14.9570 153.217 -14.9268 153.247 TC -14.7199 154.538 2 4 251
1940035S10178 1940 9 SP EA NOT_NAMED 1940-02-13 21:00:00 TS -15.0048 153.426 main 573 567 ______P__PP___ -1 -15.0446 153.086 -15.0159 153.124 TC -14.7087 154.277 2 4 251
1940035S10178 1940 9 SP EA NOT_NAMED 1940-02-13 23:00:00 TS -15.0440 153.309 990 bom main 567 567 ______O__PP___ -1 -15.1000 153.000 990 -15.0726 153.042 TC -14.7034 154.094 2 4 251
1940035S10178 1940 9 SP EA NOT_NAMED 1940-02-14 00:00:00 TS -15.0625 153.253 main 577 567 ______P__OO___ -1 -15.1238 152.956 -15.1000 153.000 TC 45 990 -14.7000 154.000 2 3 254
1940035S10178 1940 9 SP EA NOT_NAMED 1940-02-14 03:00:00 TS -15.1085 153.085 main 567 557 ______P__PP___ -1 -15.1919 152.830 -15.1698 152.866 TC -14.6669 153.702 2 3 254
1940035S10178 1940 9 SP EA NOT_NAMED 1940-02-14 06:00:00 TS -15.1523 152.920 main 567 563 ______P__PP___ -1 -15.2560 152.707 -15.2351 152.733 TC -14.6351 153.392 2 3 255
1940035S10178 1940 9 SP EA NOT_NAMED 1940-02-14 09:00:00 TS -15.1952 152.759 main 563 558 ______P__PP___ -1 -15.3173 152.587 -15.2972 152.599 TC -14.6107 153.087 2 3 254
1940035S10178 1940 9 SP EA NOT_NAMED 1940-02-14 11:00:00 TS -15.2240 152.652 main 558 554 ______P__PP___ -1 -15.3571 152.507 -15.3374 152.510 TC -14.6017 152.892 2 3 254
1940035S10178 1940 9 SP EA NOT_NAMED 1940-02-14 12:00:00 TS -15.2382 152.599 main 554 554 ______P__PO___ -1 -15.3769 152.467 -15.3572 152.465 TC -14.6000 152.800 2 3 254
1940035S10178 1940 9 SP EA NOT_NAMED 1940-02-14 15:00:00 TS -15.2822 152.444 main 557 554 ______P__PP___ -1 -15.4360 152.346 -15.4164 152.328 TC -14.6075 152.544 2 3 253
1940035S10178 1940 9 SP EA NOT_NAMED 1940-02-14 18:00:00 TS -15.3292 152.291 main 554 554 ______P__PP___ -1 -15.4957 152.221 -15.4757 152.189 TC -14.6300 152.315 2 3 244
1940035S10178 1940 9 SP EA NOT_NAMED 1940-02-14 21:00:00 TS -15.4278 152.138 main 557 557 ______P__PP___ -1 -15.5573 152.091 -15.5366 152.047 TC -14.6625 152.103 2 4 232
1940035S10178 1940 9 SP EA NOT_NAMED 1940-02-14 23:00:00 TS -15.5206 152.038 987 bom main 564 564 ______O__PP___ -1 -15.6000 152.000 987 -15.5785 151.949 TC -14.6873 151.967 2 5 218
1940035S10178 1940 9 SP EA NOT_NAMED 1940-02-15 00:00:00 TS -15.6061 151.990 main 575 575 ______P__OO___ -1 -15.6232 151.952 -15.6000 151.900 TC 50 987 -14.7000 151.900 2 5 221
1940035S10178 1940 9 SP EA NOT_NAMED 1940-02-15 03:00:00 TS -15.7516 151.834 main 590 588 ______P__P____ -1 -15.6943 151.803 -15.6684 151.749 TC 2 4 235
1940035S10178 1940 9 SP EA NOT_NAMED 1940-02-15 06:00:00 TS -15.8248 151.662 main 588 569 ______P__P____ -1 -15.7673 151.648 -15.7387 151.593 TC 2 4 246
1940035S10178 1940 9 SP EA NOT_NAMED 1940-02-15 09:00:00 TS -15.9001 151.486 main 569 553 ______P__P____ -1 -15.8420 151.489 -15.8108 151.434 TC 2 4 246
1940035S10178 1940 9 SP EA NOT_NAMED 1940-02-15 11:00:00 TS -15.9508 151.369 main 553 548 ______P__P____ -1 -15.8924 151.380 -15.8600 151.327 TC 2 4 246
1940035S10178 1940 9 SP EA NOT_NAMED 1940-02-15 12:00:00 TS -15.9759 151.311 main 548 536 ______P__P____ -1 -15.9178 151.325 -15.8849 151.272 TC 4 246
1940035S10178 1940 9 SP EA NOT_NAMED 1940-02-15 15:00:00 TS -16.0517 151.139 main 527 521 ______P__P____ -1 -15.9945 151.157 -15.9608 151.107 TC 4 245
1940035S10178 1940 9 SP EA NOT_NAMED 1940-02-15 18:00:00 TS -16.1284 150.968 main 521 500 ______P__P____ -1 -16.0716 150.987 -16.0386 150.940 TC 4 245
1940035S10178 1940 9 SP EA NOT_NAMED 1940-02-15 21:00:00 TS -16.2057 150.798 main 500 485 ______P__P____ -1 -16.1487 150.815 -16.1184 150.771 TC 4 245
1940035S10178 1940 9 SP EA NOT_NAMED 1940-02-15 23:00:00 TS -16.2575 150.686 975 bom main 485 480 ______O__P____ -1 -16.2000 150.700 975 -16.1726 150.657 TC 4 244
1940035S10178 1940 9 SP EA NOT_NAMED 1940-02-16 00:00:00 TS -16.2819 150.634 main 480 474 ______P__O____ -1 -16.2195 150.654 -16.2000 150.600 TC 65 975 3 243
1940035S10178 1940 9 SP EA NOT_NAMED 1940-02-16 03:00:00 TS -16.3499 150.495 main 474 459 ______P__P____ -1 -16.2755 150.521 -16.2688 150.465 TC 3 243
1940035S10178 1940 9 SP EA NOT_NAMED 1940-02-16 06:00:00 TS -16.4172 150.357 main 459 439 ______P__P____ -1 -16.3306 150.388 -16.3380 150.333 TC 3 243
1940035S10178 1940 9 SP EA NOT_NAMED 1940-02-16 09:00:00 TS -16.4848 150.216 main 439 432 ______P__P____ -1 -16.3884 150.248 -16.4102 150.196 TC 3 244
1940035S10178 1940 9 SP EA NOT_NAMED 1940-02-16 11:00:00 TS -16.5305 150.115 main 432 432 ______P__P____ -1 -16.4303 150.147 -16.4612 150.099 TC 3 245
1940035S10178 1940 9 SP EA NOT_NAMED 1940-02-16 12:00:00 TS -16.5522 150.065 main 423 409 ______P__P____ -1 -16.4526 150.094 -16.4878 150.048 TC 3 246
1940035S10178 1940 9 SP EA NOT_NAMED 1940-02-16 15:00:00 TS -16.6193 149.904 main 409 387 ______P__P____ -1 -16.5267 149.920 -16.5731 149.881 TC 4 247
1940035S10178 1940 9 SP EA NOT_NAMED 1940-02-16 18:00:00 TS -16.6940 149.720 main 387 365 ______P__P____ -1 -16.6143 149.718 -16.6687 149.689 TC 4 247
1940035S10178 1940 9 SP EA NOT_NAMED 1940-02-16 21:00:00 TS -16.7826 149.501 main 365 344 ______P__P____ -1 -16.7190 149.481 -16.7769 149.464 TC 5 247
1940035S10178 1940 9 SP EA NOT_NAMED 1940-02-16 23:00:00 TS -16.8524 149.331 975 bom main 344 334 ______O__P____ -1 -16.8000 149.300 975 -16.8572 149.293 TC 6 247
1940035S10178 1940 9 SP EA NOT_NAMED 1940-02-17 00:00:00 TS -16.8919 149.233 main 334 300 ______P__O____ -1 -16.8491 149.187 -16.9000 149.200 TC 65 975 7 248
1940035S10178 1940 9 SP EA NOT_NAMED 1940-02-17 03:00:00 TS -17.0267 148.888 main 300 255 ______P__P____ -1 -17.0110 148.816 -17.0477 148.844 TC 8 248
1940035S10178 1940 9 SP EA NOT_NAMED 1940-02-17 06:00:00 TS -17.1805 148.501 main 255 212 ______P__P____ -1 -17.1910 148.404 -17.2106 148.445 TC 8 247
1940035S10178 1940 9 SP EA NOT_NAMED 1940-02-17 09:00:00 TS -17.3515 148.083 main 212 180 ______P__P____ -1 -17.3837 147.967 -17.3848 148.014 TC 9 246
1940035S10178 1940 9 SP EA NOT_NAMED 1940-02-17 11:00:00 TS -17.4740 147.795 main 180 169 ______P__P____ -1 -17.5166 147.669 -17.5054 147.718 TC 9 246
1940035S10178 1940 9 SP EA NOT_NAMED 1940-02-17 12:00:00 TS -17.5382 147.648 main 159 116 ______P__P____ -1 -17.5839 147.518 -17.5666 147.568 TC 9 245
1940035S10178 1940 9 SP EA NOT_NAMED 1940-02-17 15:00:00 TS -17.7395 147.200 main 116 74 ______P__P____ -1 -17.7863 147.072 -17.7525 147.119 TC 9 244
1940035S10178 1940 9 SP EA NOT_NAMED 1940-02-17 18:00:00 TS -17.9467 146.760 main 74 42 ______P__P____ -1 -17.9861 146.642 -17.9389 146.682 TC 9 243
1940035S10178 1940 9 SP EA NOT_NAMED 1940-02-17 21:00:00 TS -18.1507 146.351 main 38 10 ______P__P____ -1 -18.1784 146.242 -18.1225 146.271 TC 8 242
1940035S10178 1940 9 SP EA NOT_NAMED 1940-02-17 23:00:00 TS -18.2806 146.106 965 bom main 10 0 ______O__P____ -1 -18.3000 146.000 965 4 -18.2417 146.018 TC 8 240
1940035S10178 1940 9 SP EA NOT_NAMED 1940-02-18 00:00:00 TS -18.3397 146.005 main 0 0 ______P__O____ -1 -18.3518 145.910 -18.3000 145.900 TC 80 965 6 235
1940035S10178 1940 9 SP EA NOT_NAMED 1940-02-18 03:00:00 TS -18.5060 145.762 main 0 0 ______P__P____ -1 -18.5013 145.671 -18.4575 145.646 TC 5 233
1940035S10178 1940 9 SP EA NOT_NAMED 1940-02-18 06:00:00 TS -18.6637 145.560 main 0 0 ______P__P____ -1 -18.6431 145.467 -18.6112 145.432 TC 5 229
1940035S10178 1940 9 SP EA NOT_NAMED 1940-02-18 09:00:00 TS -18.8137 145.383 main 0 0 ______P__P____ -1 -18.7794 145.287 -18.7620 145.246 TC 4 228
1940035S10178 1940 9 SP EA NOT_NAMED 1940-02-18 11:00:00 TS -18.9098 145.268 main 0 0 ______P__P____ -1 -18.8682 145.174 -18.8613 145.130 TC 4 229
1940035S10178 1940 9 SP EA NOT_NAMED 1940-02-18 12:00:00 TS -18.9558 145.209 main 0 0 ______P__P____ -1 -18.9122 145.118 -18.9107 145.074 TC 4 232
1940035S10178 1940 9 SP EA NOT_NAMED 1940-02-18 15:00:00 TS -19.0891 145.032 main 0 0 ______P__P____ -1 -19.0434 144.949 -19.0581 144.906 TC 4 233
1940035S10178 1940 9 SP EA NOT_NAMED 1940-02-18 18:00:00 TS -19.2202 144.841 main 0 0 ______P__P____ -1 -19.1750 144.766 -19.2050 144.729 TC 5 235
1940035S10178 1940 9 SP EA NOT_NAMED 1940-02-18 21:00:00 TS -19.3551 144.625 main 0 0 ______P__P____ -1 -19.3087 144.558 -19.3521 144.531 TC 5 237
1940035S10178 1940 9 SP EA NOT_NAMED 1940-02-18 23:00:00 TS -19.4502 144.461 988 bom main 0 0 ______O__P____ -1 -19.4000 144.400 988 -19.4506 144.382 TC 6 239
1940035S10178 1940 9 SP EA NOT_NAMED 1940-02-19 00:00:00 TS -19.5021 144.364 main 0 0 ______P__O____ -1 -19.4484 144.297 -19.5000 144.300 TC 50 988 7 241
1940035S10178 1940 9 SP EA NOT_NAMED 1940-02-19 03:00:00 TS -19.6643 144.046 main 0 0 ______P__P____ -1 -19.5953 143.965 -19.6491 144.026 TC 7 242
1940035S10178 1940 9 SP EA NOT_NAMED 1940-02-19 06:00:00 TS -19.8327 143.694 main 0 0 ______P__P____ -1 -19.7440 143.604 -19.7993 143.712 TC 8 244
1940035S10178 1940 9 SP EA NOT_NAMED 1940-02-19 09:00:00 TS -20.0028 143.317 main 0 0 ______P__P____ -1 -19.8940 143.222 -19.9500 143.364 TC 8 245
1940035S10178 1940 9 SP EA NOT_NAMED 1940-02-19 11:00:00 TS -20.1150 143.059 main 0 0 ______P__P____ -1 -19.9945 142.961 -20.0506 143.115 TC 8 245
1940035S10178 1940 9 SP EA NOT_NAMED 1940-02-19 12:00:00 TS -20.1708 142.928 main 0 0 ______P__P____ -1 -20.0449 142.828 -20.1009 142.987 TC 8 246
1940035S10178 1940 9 SP EA NOT_NAMED 1940-02-19 15:00:00 TS -20.3370 142.529 main 0 0 ______P__P____ -1 -20.1963 142.429 -20.2516 142.586 TC 8 246
1940035S10178 1940 9 SP EA NOT_NAMED 1940-02-19 18:00:00 TS -20.4989 142.129 main 0 0 ______P__P____ -1 -20.3478 142.033 -20.4019 142.168 TC 8 246
1940035S10178 1940 9 SP EA NOT_NAMED 1940-02-19 21:00:00 TS -20.6624 141.735 main 0 0 ______P__P____ -1 -20.4992 141.647 -20.5515 141.737 TC 8 246
1940035S10178 1940 9 SP EA NOT_NAMED 1940-02-19 23:00:00 TS -20.7701 141.489 992 bom main 0 0 ______O__P____ -1 -20.6000 141.400 992 -20.6506 141.446 TC 7 243
1940035S10178 1940 9 SP EA NOT_NAMED 1940-02-20 00:00:00 TS -20.8271 141.382 main 0 0 ______P__O____ -1 -20.6503 141.280 -20.7000 141.300 TC 45 992 6 243
1940035S10178 1940 9 SP EA NOT_NAMED 1940-02-20 03:00:00 NR -20.9606 141.089 main 0 0 ______P_______ -1 -20.8011 140.936 TC 6 246
1940035S10178 1940 9 SP EA NOT_NAMED 1940-02-20 06:00:00 NR -21.0682 140.809 main 0 0 ______P_______ -1 -20.9516 140.611 TC 6 247
1940035S10178 1940 9 SP EA NOT_NAMED 1940-02-20 09:00:00 NR -21.1753 140.537 main 0 0 ______P_______ -1 -21.1018 140.303 TC 6 247
1940035S10178 1940 9 SP EA NOT_NAMED 1940-02-20 11:00:00 NR -21.2509 140.353 main 0 0 ______P_______ -1 -21.2019 140.106 TC 6 246
1940035S10178 1940 9 SP EA NOT_NAMED 1940-02-20 12:00:00 NR -21.2910 140.259 main 0 0 ______P_______ -1 -21.2519 140.009 TC 6 245
1940035S10178 1940 9 SP EA NOT_NAMED 1940-02-20 15:00:00 NR -21.4198 139.968 main 0 0 ______P_______ -1 -21.4017 139.726 TC 6 244
1940035S10178 1940 9 SP EA NOT_NAMED 1940-02-20 18:00:00 NR -21.5582 139.666 main 0 0 ______P_______ -1 -21.5513 139.451 TC 6 244
1940035S10178 1940 9 SP EA NOT_NAMED 1940-02-20 21:00:00 NR -21.7025 139.358 main 0 0 ______P_______ -1 -21.7007 139.180 TC 6 243
1940035S10178 1940 9 SP EA NOT_NAMED 1940-02-20 23:00:00 NR -21.8000 139.150 995 bom main 0 ______O_______ -1 -21.8000 139.000 995 TC 6 243

Digital Typhoon Data and Search

About IBTrACS Database

This database is a web-friendly format of International Best Track Archive for Climate Stewardship (IBTrACS), a global best track data archive curated by NOAA dating back to 1842.

Updated: 2021-12-03